Matsumoto/Nagano, Japan
Current Conditions -  °F | °C
As of 11:50 AM on Monday 22 Dec 2014 (Local Time) from RJNT Reporting Station
Snow Showers Snow Showers  
Wind Chill: 26°   Ceiling: 400
Heat Index: 32°   Visibility: 0.5mi
Dew Point: 30°   Wind: 7mph
Humidity: 93%   Direction: 200°SSW
Pressure: 29.94"   Gusts: NA
Location:  36.25°N, 137.97°E
Report Text: RJNT 220250Z 20006KT 0800 SHSN VV004 00/M01 Q1014 RMK A2995
Loading
Personal Weather Stations






























Interactive Weather Map New forecast layout! Learn more

10-Day Weather Forecast

Advertisements
Track Severe Weather on mobile